sensor_id;sensor_type;location;lat;lon;timestamp;pressure;altitude;pressure_sealevel;temperature;humidity
28079;BME280;15388;42.238;24.684;2023-10-19T00:02:08;99704.84;;;9.52;100.00
28079;BME280;15388;42.238;24.684;2023-10-19T00:04:33;99696.00;;;9.51;100.00
28079;BME280;15388;42.238;24.684;2023-10-19T00:07:04;99693.34;;;9.51;100.00
28079;BME280;15388;42.238;24.684;2023-10-19T00:09:34;99696.13;;;9.50;100.00
28079;BME280;15388;42.238;24.684;2023-10-19T00:12:04;99688.28;;;9.48;100.00
28079;BME280;15388;42.238;24.684;2023-10-19T00:14:31;99684.31;;;9.42;100.00
28079;BME280;15388;42.238;24.684;2023-10-19T00:16:58;99675.38;;;9.43;100.00
28079;BME280;15388;42.238;24.684;2023-10-19T00:19:26;99672.03;;;9.41;100.00
28079;BME280;15388;42.238;24.684;2023-10-19T00:21:55;99681.34;;;9.36;100.00
28079;BME280;15388;42.238;24.684;2023-10-19T00:24:27;99674.19;;;9.36;100.00
28079;BME280;15388;42.238;24.684;2023-10-19T00:26:52;99668.31;;;9.33;100.00
28079;BME280;15388;42.238;24.684;2023-10-19T00:29:20;99665.53;;;9.34;100.00
28079;BME280;15388;42.238;24.684;2023-10-19T00:32:01;99662.47;;;9.39;100.00
28079;BME280;15388;42.238;24.684;2023-10-19T00:34:28;99655.34;;;9.39;100.00
28079;BME280;15388;42.238;24.684;2023-10-19T00:36:57;99654.38;;;9.40;100.00
28079;BME280;15388;42.238;24.684;2023-10-19T00:39:30;99654.50;;;9.39;100.00
28079;BME280;15388;42.238;24.684;2023-10-19T00:42:06;99657.88;;;9.41;100.00
28079;BME280;15388;42.238;24.684;2023-10-19T00:44:31;99654.66;;;9.37;100.00
28079;BME280;15388;42.238;24.684;2023-10-19T00:47:07;99652.00;;;9.37;100.00
28079;BME280;15388;42.238;24.684;2023-10-19T00:49:38;99647.63;;;9.36;100.00
28079;BME280;15388;42.238;24.684;2023-10-19T00:52:06;99647.38;;;9.39;100.00
28079;BME280;15388;42.238;24.684;2023-10-19T00:54:42;99650.78;;;9.41;100.00
28079;BME280;15388;42.238;24.684;2023-10-19T00:57:15;99651.28;;;9.35;100.00
28079;BME280;15388;42.238;24.684;2023-10-19T00:59:45;99642.00;;;9.29;100.00
28079;BME280;15388;42.238;24.684;2023-10-19T01:02:26;99641.25;;;9.27;100.00
28079;BME280;15388;42.238;24.684;2023-10-19T01:04:53;99636.94;;;9.26;100.00
28079;BME280;15388;42.238;24.684;2023-10-19T01:07:29;99628.50;;;9.21;100.00
28079;BME280;15388;42.238;24.684;2023-10-19T01:10:03;99628.22;;;9.24;100.00
28079;BME280;15388;42.238;24.684;2023-10-19T01:12:33;99622.47;;;9.19;100.00
28079;BME280;15388;42.238;24.684;2023-10-19T01:15:10;99629.84;;;9.15;100.00
28079;BME280;15388;42.238;24.684;2023-10-19T01:20:13;99625.78;;;9.00;100.00
28079;BME280;15388;42.238;24.684;2023-10-19T01:22:53;99610.13;;;8.85;100.00
28079;BME280;15388;42.238;24.684;2023-10-19T01:25:32;99613.25;;;8.79;100.00
28079;BME280;15388;42.238;24.684;2023-10-19T01:28:11;99611.81;;;8.75;100.00
28079;BME280;15388;42.238;24.684;2023-10-19T01:30:41;99614.50;;;8.63;100.00
28079;BME280;15388;42.238;24.684;2023-10-19T01:33:07;99612.91;;;8.49;100.00
28079;BME280;15388;42.238;24.684;2023-10-19T01:35:38;99607.25;;;8.43;100.00
28079;BME280;15388;42.238;24.684;2023-10-19T01:38:22;99616.41;;;8.38;100.00
28079;BME280;15388;42.238;24.684;2023-10-19T01:40:48;99614.72;;;8.37;100.00
28079;BME280;15388;42.238;24.684;2023-10-19T01:43:14;99610.75;;;8.32;100.00
28079;BME280;15388;42.238;24.684;2023-10-19T01:45:49;99614.22;;;8.21;100.00
28079;BME280;15388;42.238;24.684;2023-10-19T01:48:20;99614.44;;;8.06;100.00
28079;BME280;15388;42.238;24.684;2023-10-19T01:51:01;99617.09;;;7.95;100.00
28079;BME280;15388;42.238;24.684;2023-10-19T01:53:29;99619.94;;;7.80;100.00
28079;BME280;15388;42.238;24.684;2023-10-19T01:55:54;99608.56;;;7.91;100.00
28079;BME280;15388;42.238;24.684;2023-10-19T01:58:26;99615.88;;;7.99;100.00
28079;BME280;15388;42.238;24.684;2023-10-19T02:00:55;99609.41;;;8.03;100.00
28079;BME280;15388;42.238;24.684;2023-10-19T02:03:21;99614.34;;;8.08;100.00
28079;BME280;15388;42.238;24.684;2023-10-19T02:05:57;99615.94;;;8.10;100.00
28079;BME280;15388;42.238;24.684;2023-10-19T02:08:24;99614.72;;;8.14;100.00
28079;BME280;15388;42.238;24.684;2023-10-19T02:10:51;99615.44;;;8.16;100.00
28079;BME280;15388;42.238;24.684;2023-10-19T02:13:17;99610.88;;;8.19;100.00
28079;BME280;15388;42.238;24.684;2023-10-19T02:15:44;99610.88;;;8.19;100.00
28079;BME280;15388;42.238;24.684;2023-10-19T02:18:09;99610.41;;;8.25;100.00
28079;BME280;15388;42.238;24.684;2023-10-19T02:20:36;99616.41;;;8.27;100.00
28079;BME280;15388;42.238;24.684;2023-10-19T02:23:05;99608.44;;;8.27;100.00
28079;BME280;15388;42.238;24.684;2023-10-19T02:25:31;99624.13;;;8.30;100.00
28079;BME280;15388;42.238;24.684;2023-10-19T02:28:02;99627.38;;;8.22;100.00
28079;BME280;15388;42.238;24.684;2023-10-19T02:30:28;99624.94;;;8.19;100.00
28079;BME280;15388;42.238;24.684;2023-10-19T02:32:53;99628.69;;;8.16;100.00
28079;BME280;15388;42.238;24.684;2023-10-19T02:35:19;99615.19;;;8.08;100.00
28079;BME280;15388;42.238;24.684;2023-10-19T02:37:44;99627.97;;;8.03;100.00
28079;BME280;15388;42.238;24.684;2023-10-19T02:40:10;99631.31;;;8.05;100.00
28079;BME280;15388;42.238;24.684;2023-10-19T02:42:48;99638.56;;;8.03;100.00
28079;BME280;15388;42.238;24.684;2023-10-19T02:45:17;99633.44;;;7.77;100.00
28079;BME280;15388;42.238;24.684;2023-10-19T02:47:44;99638.13;;;7.73;100.00
28079;BME280;15388;42.238;24.684;2023-10-19T02:50:10;99650.03;;;7.68;100.00
28079;BME280;15388;42.238;24.684;2023-10-19T02:52:39;99643.50;;;7.60;100.00
28079;BME280;15388;42.238;24.684;2023-10-19T02:55:07;99642.28;;;7.53;100.00
28079;BME280;15388;42.238;24.684;2023-10-19T02:57:32;99649.47;;;7.51;100.00
28079;BME280;15388;42.238;24.684;2023-10-19T02:59:58;99639.19;;;7.35;100.00
28079;BME280;15388;42.238;24.684;2023-10-19T03:02:24;99640.03;;;7.35;100.00
28079;BME280;15388;42.238;24.684;2023-10-19T03:04:53;99637.13;;;7.27;100.00
28079;BME280;15388;42.238;24.684;2023-10-19T03:07:18;99650.78;;;7.21;100.00
28079;BME280;15388;42.238;24.684;2023-10-19T03:09:44;99641.13;;;6.95;100.00
28079;BME280;15388;42.238;24.684;2023-10-19T03:12:21;99639.50;;;6.81;100.00
28079;BME280;15388;42.238;24.684;2023-10-19T03:14:51;99642.78;;;6.72;100.00
28079;BME280;15388;42.238;24.684;2023-10-19T03:17:17;99641.31;;;6.68;100.00
28079;BME280;15388;42.238;24.684;2023-10-19T03:19:43;99645.78;;;6.67;100.00
28079;BME280;15388;42.238;24.684;2023-10-19T03:22:08;99645.34;;;6.60;100.00
28079;BME280;15388;42.238;24.684;2023-10-19T03:24:35;99645.56;;;6.57;100.00
28079;BME280;15388;42.238;24.684;2023-10-19T03:27:05;99640.72;;;6.25;100.00
28079;BME280;15388;42.238;24.684;2023-10-19T03:29:50;99648.53;;;6.27;100.00
28079;BME280;15388;42.238;24.684;2023-10-19T03:32:26;99652.56;;;6.32;100.00
28079;BME280;15388;42.238;24.684;2023-10-19T03:34:52;99657.53;;;6.37;100.00
28079;BME280;15388;42.238;24.684;2023-10-19T03:37:24;99647.91;;;6.49;100.00
28079;BME280;15388;42.238;24.684;2023-10-19T03:39:51;99651.06;;;6.54;100.00
28079;BME280;15388;42.238;24.684;2023-10-19T03:42:17;99655.72;;;6.63;100.00
28079;BME280;15388;42.238;24.684;2023-10-19T03:44:43;99643.00;;;6.69;100.00
28079;BME280;15388;42.238;24.684;2023-10-19T03:47:14;99642.34;;;6.78;100.00
28079;BME280;15388;42.238;24.684;2023-10-19T03:49:44;99643.41;;;6.75;100.00
28079;BME280;15388;42.238;24.684;2023-10-19T03:52:11;99634.63;;;6.75;100.00
28079;BME280;15388;42.238;24.684;2023-10-19T03:54:37;99627.56;;;6.75;100.00
28079;BME280;15388;42.238;24.684;2023-10-19T03:57:07;99628.31;;;6.65;100.00
28079;BME280;15388;42.238;24.684;2023-10-19T03:59:37;99621.44;;;6.62;100.00
28079;BME280;15388;42.238;24.684;2023-10-19T04:02:03;99626.53;;;6.52;100.00
28079;BME280;15388;42.238;24.684;2023-10-19T04:04:35;99624.22;;;6.34;100.00
28079;BME280;15388;42.238;24.684;2023-10-19T04:07:00;99617.03;;;6.23;100.00
28079;BME280;15388;42.238;24.684;2023-10-19T04:09:35;99618.56;;;6.15;100.00
28079;BME280;15388;42.238;24.684;2023-10-19T04:12:02;99620.44;;;6.13;100.00
28079;BME280;15388;42.238;24.684;2023-10-19T04:14:27;99621.72;;;6.20;100.00
28079;BME280;15388;42.238;24.684;2023-10-19T04:16:55;99625.09;;;6.22;100.00
28079;BME280;15388;42.238;24.684;2023-10-19T04:19:21;99623.47;;;6.32;100.00
28079;BME280;15388;42.238;24.684;2023-10-19T04:21:46;99623.59;;;6.31;100.00
28079;BME280;15388;42.238;24.684;2023-10-19T04:24:13;99622.88;;;6.16;100.00
28079;BME280;15388;42.238;24.684;2023-10-19T04:26:40;99617.59;;;6.16;100.00
28079;BME280;15388;42.238;24.684;2023-10-19T04:29:07;99621.91;;;6.17;100.00
28079;BME280;15388;42.238;24.684;2023-10-19T04:31:39;99620.84;;;6.06;100.00
28079;BME280;15388;42.238;24.684;2023-10-19T04:34:21;99627.47;;;5.99;100.00
28079;BME280;15388;42.238;24.684;2023-10-19T04:36:47;99633.72;;;5.98;100.00
28079;BME280;15388;42.238;24.684;2023-10-19T04:39:12;99630.56;;;5.93;100.00
28079;BME280;15388;42.238;24.684;2023-10-19T04:41:42;99633.94;;;5.95;100.00
28079;BME280;15388;42.238;24.684;2023-10-19T04:44:11;99623.78;;;6.02;100.00
28079;BME280;15388;42.238;24.684;2023-10-19T04:46:37;99624.63;;;6.02;100.00
28079;BME280;15388;42.238;24.684;2023-10-19T04:49:02;99626.56;;;6.00;100.00
28079;BME280;15388;42.238;24.684;2023-10-19T04:51:30;99625.69;;;5.86;100.00
28079;BME280;15388;42.238;24.684;2023-10-19T04:53:56;99631.38;;;5.93;100.00
28079;BME280;15388;42.238;24.684;2023-10-19T04:56:21;99637.31;;;5.97;100.00
28079;BME280;15388;42.238;24.684;2023-10-19T04:58:47;99640.47;;;6.02;100.00
28079;BME280;15388;42.238;24.684;2023-10-19T05:01:13;99645.59;;;6.05;100.00
28079;BME280;15388;42.238;24.684;2023-10-19T05:03:41;99638.81;;;6.01;100.00
28079;BME280;15388;42.238;24.684;2023-10-19T05:06:07;99639.53;;;6.03;100.00
28079;BME280;15388;42.238;24.684;2023-10-19T05:08:35;99641.16;;;6.06;100.00
28079;BME280;15388;42.238;24.684;2023-10-19T05:11:01;99648.75;;;6.10;100.00
28079;BME280;15388;42.238;24.684;2023-10-19T05:13:28;99639.44;;;6.18;100.00
28079;BME280;15388;42.238;24.684;2023-10-19T05:15:54;99642.44;;;6.26;100.00
28079;BME280;15388;42.238;24.684;2023-10-19T05:18:21;99641.06;;;6.33;100.00
28079;BME280;15388;42.238;24.684;2023-10-19T05:20:47;99642.09;;;6.31;100.00
28079;BME280;15388;42.238;24.684;2023-10-19T05:23:12;99646.13;;;6.36;100.00
28079;BME280;15388;42.238;24.684;2023-10-19T05:25:39;99646.34;;;6.33;100.00
28079;BME280;15388;42.238;24.684;2023-10-19T05:28:06;99646.44;;;6.45;100.00
28079;BME280;15388;42.238;24.684;2023-10-19T05:30:33;99648.94;;;6.59;100.00
28079;BME280;15388;42.238;24.684;2023-10-19T05:32:59;99645.25;;;6.62;100.00
28079;BME280;15388;42.238;24.684;2023-10-19T05:35:28;99638.88;;;6.65;100.00
28079;BME280;15388;42.238;24.684;2023-10-19T05:37:53;99635.69;;;6.72;100.00
28079;BME280;15388;42.238;24.684;2023-10-19T05:40:23;99643.59;;;6.85;100.00
28079;BME280;15388;42.238;24.684;2023-10-19T05:42:49;99650.88;;;6.95;100.00
28079;BME280;15388;42.238;24.684;2023-10-19T05:45:14;99648.25;;;6.95;100.00
28079;BME280;15388;42.238;24.684;2023-10-19T05:47:42;99651.91;;;7.05;100.00
28079;BME280;15388;42.238;24.684;2023-10-19T05:50:10;99648.19;;;7.08;100.00
28079;BME280;15388;42.238;24.684;2023-10-19T05:52:42;99651.13;;;7.16;100.00
28079;BME280;15388;42.238;24.684;2023-10-19T05:55:09;99658.00;;;7.19;100.00
28079;BME280;15388;42.238;24.684;2023-10-19T05:57:37;99644.75;;;7.19;100.00
28079;BME280;15388;42.238;24.684;2023-10-19T06:00:11;99644.31;;;7.25;100.00
28079;BME280;15388;42.238;24.684;2023-10-19T06:02:47;99647.06;;;7.23;100.00
28079;BME280;15388;42.238;24.684;2023-10-19T06:05:15;99664.63;;;7.24;100.00
28079;BME280;15388;42.238;24.684;2023-10-19T06:07:46;99656.81;;;7.23;100.00
28079;BME280;15388;42.238;24.684;2023-10-19T06:10:14;99659.22;;;7.26;100.00
28079;BME280;15388;42.238;24.684;2023-10-19T06:12:50;99655.56;;;7.16;100.00
28079;BME280;15388;42.238;24.684;2023-10-19T06:15:17;99648.25;;;7.19;100.00
28079;BME280;15388;42.238;24.684;2023-10-19T06:17:43;99661.09;;;7.37;100.00
28079;BME280;15388;42.238;24.684;2023-10-19T06:20:11;99662.34;;;7.20;100.00
28079;BME280;15388;42.238;24.684;2023-10-19T06:22:49;99662.22;;;7.21;100.00
28079;BME280;15388;42.238;24.684;2023-10-19T06:25:23;99662.84;;;7.49;100.00
28079;BME280;15388;42.238;24.684;2023-10-19T06:27:51;99664.78;;;7.47;100.00
28079;BME280;15388;42.238;24.684;2023-10-19T06:30:18;99662.75;;;7.62;100.00
28079;BME280;15388;42.238;24.684;2023-10-19T06:32:53;99662.47;;;7.78;100.00
28079;BME280;15388;42.238;24.684;2023-10-19T06:35:20;99656.22;;;7.80;100.00
28079;BME280;15388;42.238;24.684;2023-10-19T06:37:46;99662.59;;;7.88;100.00
28079;BME280;15388;42.238;24.684;2023-10-19T06:40:13;99662.78;;;7.98;100.00
28079;BME280;15388;42.238;24.684;2023-10-19T06:42:45;99660.50;;;8.16;100.00
28079;BME280;15388;42.238;24.684;2023-10-19T06:45:11;99647.75;;;8.33;100.00
28079;BME280;15388;42.238;24.684;2023-10-19T06:47:40;99651.19;;;8.58;100.00
28079;BME280;15388;42.238;24.684;2023-10-19T06:50:06;99649.09;;;8.73;100.00
28079;BME280;15388;42.238;24.684;2023-10-19T06:52:38;99649.34;;;8.82;100.00
28079;BME280;15388;42.238;24.684;2023-10-19T06:55:06;99652.31;;;9.00;100.00
28079;BME280;15388;42.238;24.684;2023-10-19T06:57:38;99644.59;;;9.08;100.00
28079;BME280;15388;42.238;24.684;2023-10-19T07:00:04;99647.22;;;9.20;100.00
28079;BME280;15388;42.238;24.684;2023-10-19T07:02:36;99653.31;;;9.43;100.00
28079;BME280;15388;42.238;24.684;2023-10-19T07:05:02;99657.66;;;9.65;100.00
28079;BME280;15388;42.238;24.684;2023-10-19T07:07:29;99654.69;;;9.80;100.00
28079;BME280;15388;42.238;24.684;2023-10-19T07:09:55;99653.56;;;9.94;100.00
28079;BME280;15388;42.238;24.684;2023-10-19T07:12:20;99654.78;;;10.11;100.00
28079;BME280;15388;42.238;24.684;2023-10-19T07:14:46;99653.31;;;10.28;100.00
28079;BME280;15388;42.238;24.684;2023-10-19T07:17:12;99648.03;;;10.38;100.00
28079;BME280;15388;42.238;24.684;2023-10-19T07:19:42;99646.03;;;10.52;100.00
28079;BME280;15388;42.238;24.684;2023-10-19T07:22:07;99646.53;;;10.67;100.00
28079;BME280;15388;42.238;24.684;2023-10-19T07:24:34;99645.44;;;10.89;100.00
28079;BME280;15388;42.238;24.684;2023-10-19T07:27:01;99641.25;;;10.96;100.00
28079;BME280;15388;42.238;24.684;2023-10-19T07:29:30;99643.84;;;11.08;100.00
28079;BME280;15388;42.238;24.684;2023-10-19T07:31:56;99643.16;;;11.26;100.00
28079;BME280;15388;42.238;24.684;2023-10-19T07:34:24;99642.16;;;11.46;100.00
28079;BME280;15388;42.238;24.684;2023-10-19T07:36:55;99638.38;;;11.69;100.00
28079;BME280;15388;42.238;24.684;2023-10-19T07:39:23;99637.94;;;11.93;100.00
28079;BME280;15388;42.238;24.684;2023-10-19T07:41:49;99637.38;;;12.09;100.00
28079;BME280;15388;42.238;24.684;2023-10-19T07:44:15;99636.47;;;12.29;100.00
28079;BME280;15388;42.238;24.684;2023-10-19T07:46:40;99633.72;;;12.48;100.00
28079;BME280;15388;42.238;24.684;2023-10-19T07:49:07;99640.81;;;12.68;100.00
28079;BME280;15388;42.238;24.684;2023-10-19T07:51:33;99629.41;;;12.76;100.00
28079;BME280;15388;42.238;24.684;2023-10-19T07:53:58;99630.19;;;12.86;100.00
28079;BME280;15388;42.238;24.684;2023-10-19T07:56:23;99636.41;;;13.05;100.00
28079;BME280;15388;42.238;24.684;2023-10-19T07:58:50;99628.53;;;13.21;100.00
28079;BME280;15388;42.238;24.684;2023-10-19T08:01:15;99633.84;;;13.31;100.00
28079;BME280;15388;42.238;24.684;2023-10-19T08:03:41;99631.28;;;13.58;100.00
28079;BME280;15388;42.238;24.684;2023-10-19T08:06:06;99633.22;;;13.74;100.00
28079;BME280;15388;42.238;24.684;2023-10-19T08:08:32;99633.19;;;13.92;100.00
28079;BME280;15388;42.238;24.684;2023-10-19T08:11:00;99632.97;;;14.12;100.00
28079;BME280;15388;42.238;24.684;2023-10-19T08:13:27;99630.09;;;14.32;100.00
28079;BME280;15388;42.238;24.684;2023-10-19T08:15:52;99628.47;;;14.39;100.00
28079;BME280;15388;42.238;24.684;2023-10-19T08:18:18;99632.78;;;14.32;100.00
28079;BME280;15388;42.238;24.684;2023-10-19T08:20:45;99633.34;;;14.44;100.00
28079;BME280;15388;42.238;24.684;2023-10-19T08:23:11;99622.03;;;14.58;100.00
28079;BME280;15388;42.238;24.684;2023-10-19T08:25:39;99615.03;;;14.74;100.00
28079;BME280;15388;42.238;24.684;2023-10-19T08:28:04;99613.44;;;14.89;100.00
28079;BME280;15388;42.238;24.684;2023-10-19T08:30:31;99604.78;;;15.04;100.00
28079;BME280;15388;42.238;24.684;2023-10-19T08:32:58;99604.28;;;15.17;100.00
28079;BME280;15388;42.238;24.684;2023-10-19T08:35:24;99604.66;;;15.14;100.00
28079;BME280;15388;42.238;24.684;2023-10-19T08:37:50;99602.97;;;15.30;100.00
28079;BME280;15388;42.238;24.684;2023-10-19T08:40:16;99608.38;;;15.46;100.00
28079;BME280;15388;42.238;24.684;2023-10-19T08:42:46;99594.09;;;15.71;100.00
28079;BME280;15388;42.238;24.684;2023-10-19T08:45:12;99588.22;;;15.84;100.00
28079;BME280;15388;42.238;24.684;2023-10-19T08:47:56;99594.94;;;16.04;100.00
28079;BME280;15388;42.238;24.684;2023-10-19T08:50:25;99593.19;;;16.20;100.00
28079;BME280;15388;42.238;24.684;2023-10-19T08:52:56;99593.53;;;16.17;100.00
28079;BME280;15388;42.238;24.684;2023-10-19T08:55:22;99596.56;;;16.14;100.00
28079;BME280;15388;42.238;24.684;2023-10-19T08:57:49;99591.72;;;16.17;100.00
28079;BME280;15388;42.238;24.684;2023-10-19T09:00:16;99592.34;;;16.28;100.00
28079;BME280;15388;42.238;24.684;2023-10-19T09:02:45;99574.66;;;16.42;100.00
28079;BME280;15388;42.238;24.684;2023-10-19T09:05:11;99571.94;;;16.50;100.00
28079;BME280;15388;42.238;24.684;2023-10-19T09:07:48;99570.50;;;16.71;100.00
28079;BME280;15388;42.238;24.684;2023-10-19T09:10:23;99571.56;;;16.93;100.00
28079;BME280;15388;42.238;24.684;2023-10-19T09:13:06;99570.75;;;17.16;100.00
28079;BME280;15388;42.238;24.684;2023-10-19T09:15:39;99559.22;;;17.31;100.00
28079;BME280;15388;42.238;24.684;2023-10-19T09:18:15;99569.28;;;17.52;99.63
28079;BME280;15388;42.238;24.684;2023-10-19T09:20:42;99562.47;;;17.65;96.23
28079;BME280;15388;42.238;24.684;2023-10-19T09:23:18;99564.66;;;17.46;94.18
28079;BME280;15388;42.238;24.684;2023-10-19T09:25:46;99564.75;;;17.53;98.17
28079;BME280;15388;42.238;24.684;2023-10-19T09:28:11;99555.03;;;17.67;96.37
28079;BME280;15388;42.238;24.684;2023-10-19T09:30:39;99549.59;;;17.90;96.39
28079;BME280;15388;42.238;24.684;2023-10-19T09:33:05;99546.72;;;17.92;94.07
28079;BME280;15388;42.238;24.684;2023-10-19T09:35:34;99529.28;;;18.18;94.04
28079;BME280;15388;42.238;24.684;2023-10-19T09:37:59;99526.50;;;18.26;91.87
28079;BME280;15388;42.238;24.684;2023-10-19T09:40:26;99522.19;;;18.47;92.87
28079;BME280;15388;42.238;24.684;2023-10-19T09:42:56;99524.47;;;18.65;88.75
28079;BME280;15388;42.238;24.684;2023-10-19T09:45:27;99524.53;;;18.72;88.31
28079;BME280;15388;42.238;24.684;2023-10-19T09:47:55;99527.66;;;18.91;86.48
28079;BME280;15388;42.238;24.684;2023-10-19T09:50:21;99529.06;;;19.08;83.48
28079;BME280;15388;42.238;24.684;2023-10-19T09:52:47;99520.50;;;19.20;80.51
28079;BME280;15388;42.238;24.684;2023-10-19T09:55:43;99520.41;;;19.13;79.03
28079;BME280;15388;42.238;24.684;2023-10-19T09:58:16;99520.41;;;19.13;78.82
28079;BME280;15388;42.238;24.684;2023-10-19T10:00:47;99521.88;;;19.16;79.17
28079;BME280;15388;42.238;24.684;2023-10-19T10:03:49;99516.38;;;19.24;77.58
28079;BME280;15388;42.238;24.684;2023-10-19T10:06:26;99515.31;;;18.81;76.18
28079;BME280;15388;42.238;24.684;2023-10-19T10:08:52;99505.84;;;18.70;77.35
28079;BME280;15388;42.238;24.684;2023-10-19T10:11:20;99514.41;;;18.74;76.49
28079;BME280;15388;42.238;24.684;2023-10-19T10:13:46;99503.38;;;18.69;77.63
28079;BME280;15388;42.238;24.684;2023-10-19T10:16:16;99505.94;;;18.99;79.01
28079;BME280;15388;42.238;24.684;2023-10-19T10:18:42;99499.50;;;19.15;77.47
28079;BME280;15388;42.238;24.684;2023-10-19T10:21:14;99498.88;;;19.42;76.16
28079;BME280;15388;42.238;24.684;2023-10-19T10:26:11;99483.97;;;19.81;73.89
28079;BME280;15388;42.238;24.684;2023-10-19T10:28:39;99487.06;;;20.14;72.05
28079;BME280;15388;42.238;24.684;2023-10-19T10:31:20;99490.28;;;20.44;71.76
28079;BME280;15388;42.238;24.684;2023-10-19T10:33:50;99490.78;;;20.75;70.05
28079;BME280;15388;42.238;24.684;2023-10-19T10:36:22;99477.53;;;21.00;68.32
28079;BME280;15388;42.238;24.684;2023-10-19T10:38:51;99468.59;;;21.20;67.10
28079;BME280;15388;42.238;24.684;2023-10-19T10:41:21;99477.97;;;21.45;63.23
28079;BME280;15388;42.238;24.684;2023-10-19T10:43:51;99465.63;;;21.62;61.28
28079;BME280;15388;42.238;24.684;2023-10-19T10:46:18;99470.19;;;21.69;61.13
28079;BME280;15388;42.238;24.684;2023-10-19T10:48:44;99464.78;;;21.82;59.68
28079;BME280;15388;42.238;24.684;2023-10-19T10:51:20;99461.84;;;21.91;58.59
28079;BME280;15388;42.238;24.684;2023-10-19T10:53:48;99448.28;;;21.97;57.52
28079;BME280;15388;42.238;24.684;2023-10-19T10:56:15;99443.22;;;22.08;55.78
28079;BME280;15388;42.238;24.684;2023-10-19T10:58:40;99438.47;;;22.03;55.33
28079;BME280;15388;42.238;24.684;2023-10-19T11:01:06;99435.94;;;22.08;56.01
28079;BME280;15388;42.238;24.684;2023-10-19T11:03:32;99438.38;;;22.23;55.10
28079;BME280;15388;42.238;24.684;2023-10-19T11:06:07;99424.97;;;22.35;53.84
28079;BME280;15388;42.238;24.684;2023-10-19T11:08:37;99422.72;;;22.25;53.04
28079;BME280;15388;42.238;24.684;2023-10-19T11:11:08;99415.84;;;22.23;51.13
28079;BME280;15388;42.238;24.684;2023-10-19T11:13:37;99418.28;;;22.31;51.66
28079;BME280;15388;42.238;24.684;2023-10-19T11:16:05;99410.78;;;22.33;52.56
28079;BME280;15388;42.238;24.684;2023-10-19T11:18:37;99405.47;;;22.13;51.95
28079;BME280;15388;42.238;24.684;2023-10-19T11:21:12;99389.19;;;22.20;53.00
28079;BME280;15388;42.238;24.684;2023-10-19T11:23:44;99391.53;;;22.48;52.82
28079;BME280;15388;42.238;24.684;2023-10-19T11:26:11;99388.94;;;22.60;50.46
28079;BME280;15388;42.238;24.684;2023-10-19T11:28:38;99377.56;;;22.77;51.95
28079;BME280;15388;42.238;24.684;2023-10-19T11:31:19;99370.19;;;22.84;51.61
28079;BME280;15388;42.238;24.684;2023-10-19T11:33:50;99359.59;;;23.01;51.29
28079;BME280;15388;42.238;24.684;2023-10-19T11:36:19;99349.69;;;23.14;50.72
28079;BME280;15388;42.238;24.684;2023-10-19T11:38:46;99348.47;;;23.10;49.24
28079;BME280;15388;42.238;24.684;2023-10-19T11:41:13;99361.94;;;22.98;49.20
28079;BME280;15388;42.238;24.684;2023-10-19T11:43:40;99367.63;;;22.89;50.51
28079;BME280;15388;42.238;24.684;2023-10-19T11:46:05;99352.41;;;22.88;50.03
28079;BME280;15388;42.238;24.684;2023-10-19T11:48:33;99344.25;;;22.70;50.87
28079;BME280;15388;42.238;24.684;2023-10-19T11:51:01;99353.25;;;22.63;50.77
28079;BME280;15388;42.238;24.684;2023-10-19T11:53:30;99346.44;;;22.54;51.26
28079;BME280;15388;42.238;24.684;2023-10-19T11:55:59;99341.88;;;22.48;50.69
28079;BME280;15388;42.238;24.684;2023-10-19T11:58:26;99346.09;;;22.44;51.28
28079;BME280;15388;42.238;24.684;2023-10-19T12:00:51;99337.69;;;22.52;52.13
28079;BME280;15388;42.238;24.684;2023-10-19T12:03:17;99335.59;;;22.54;51.00
28079;BME280;15388;42.238;24.684;2023-10-19T12:05:43;99351.50;;;22.44;50.61
28079;BME280;15388;42.238;24.684;2023-10-19T12:08:09;99337.78;;;22.38;49.83
28079;BME280;15388;42.238;24.684;2023-10-19T12:10:34;99337.78;;;22.38;49.79
28079;BME280;15388;42.238;24.684;2023-10-19T12:13:06;99339.25;;;22.41;50.41
28079;BME280;15388;42.238;24.684;2023-10-19T12:15:32;99324.75;;;22.54;50.42
28079;BME280;15388;42.238;24.684;2023-10-19T12:17:58;99326.09;;;22.70;49.79
28079;BME280;15388;42.238;24.684;2023-10-19T12:20:24;99323.22;;;22.90;49.70
28079;BME280;15388;42.238;24.684;2023-10-19T12:22:50;99322.25;;;23.03;48.32
28079;BME280;15388;42.238;24.684;2023-10-19T12:25:26;99302.28;;;22.47;49.70
28079;BME280;15388;42.238;24.684;2023-10-19T12:28:03;99317.56;;;22.67;48.89
28079;BME280;15388;42.238;24.684;2023-10-19T12:30:29;99311.41;;;22.78;49.16
28079;BME280;15388;42.238;24.684;2023-10-19T12:33:02;99304.03;;;22.85;48.36
28079;BME280;15388;42.238;24.684;2023-10-19T12:35:33;99305.25;;;22.89;48.48
28079;BME280;15388;42.238;24.684;2023-10-19T12:38:16;99293.91;;;22.99;48.22
28079;BME280;15388;42.238;24.684;2023-10-19T12:40:43;99295.47;;;23.07;48.56
28079;BME280;15388;42.238;24.684;2023-10-19T12:43:10;99290.03;;;23.07;48.11
28079;BME280;15388;42.238;24.684;2023-10-19T12:45:39;99283.28;;;23.16;47.69
28079;BME280;15388;42.238;24.684;2023-10-19T12:48:05;99273.06;;;23.37;47.34
28079;BME280;15388;42.238;24.684;2023-10-19T12:50:32;99273.00;;;23.56;45.73
28079;BME280;15388;42.238;24.684;2023-10-19T12:52:59;99268.50;;;23.50;46.14
28079;BME280;15388;42.238;24.684;2023-10-19T12:55:25;99265.38;;;23.65;45.87
28079;BME280;15388;42.238;24.684;2023-10-19T12:57:53;99265.44;;;23.77;45.04
28079;BME280;15388;42.238;24.684;2023-10-19T13:00:18;99269.19;;;23.76;45.30
28079;BME280;15388;42.238;24.684;2023-10-19T13:02:51;99270.88;;;23.77;44.11